sensor_id;sensor_type;location;lat;lon;timestamp;P1;durP1;ratioP1;P2;durP2;ratioP2
69878;SDS011;57161;43.136;24.706;2022-10-31T00:03:48;8.35;;;3.00;;
69878;SDS011;57161;43.136;24.706;2022-10-31T00:06:14;6.47;;;2.85;;
69878;SDS011;57161;43.136;24.706;2022-10-31T00:08:43;6.90;;;2.88;;
69878;SDS011;57161;43.136;24.706;2022-10-31T00:11:10;5.72;;;2.70;;
69878;SDS011;57161;43.136;24.706;2022-10-31T00:13:36;7.28;;;3.05;;
69878;SDS011;57161;43.136;24.706;2022-10-31T00:16:01;9.43;;;3.38;;
69878;SDS011;57161;43.136;24.706;2022-10-31T00:18:27;6.40;;;3.15;;
69878;SDS011;57161;43.136;24.706;2022-10-31T00:20:59;6.03;;;2.85;;
69878;SDS011;57161;43.136;24.706;2022-10-31T00:23:25;6.00;;;2.80;;
69878;SDS011;57161;43.136;24.706;2022-10-31T00:25:51;6.88;;;3.15;;
69878;SDS011;57161;43.136;24.706;2022-10-31T00:28:17;6.53;;;2.88;;
69878;SDS011;57161;43.136;24.706;2022-10-31T00:30:42;6.30;;;3.20;;
69878;SDS011;57161;43.136;24.706;2022-10-31T00:33:07;8.48;;;3.20;;
69878;SDS011;57161;43.136;24.706;2022-10-31T00:35:33;10.10;;;3.00;;
69878;SDS011;57161;43.136;24.706;2022-10-31T00:37:58;7.53;;;3.00;;
69878;SDS011;57161;43.136;24.706;2022-10-31T00:40:24;7.00;;;2.78;;
69878;SDS011;57161;43.136;24.706;2022-10-31T00:42:49;6.80;;;3.30;;
69878;SDS011;57161;43.136;24.706;2022-10-31T00:45:14;9.00;;;3.22;;
69878;SDS011;57161;43.136;24.706;2022-10-31T00:47:40;4.80;;;2.88;;
69878;SDS011;57161;43.136;24.706;2022-10-31T00:50:05;10.23;;;3.50;;
69878;SDS011;57161;43.136;24.706;2022-10-31T00:52:32;6.13;;;3.10;;
69878;SDS011;57161;43.136;24.706;2022-10-31T00:54:57;6.38;;;3.10;;
69878;SDS011;57161;43.136;24.706;2022-10-31T00:57:23;8.27;;;3.28;;
69878;SDS011;57161;43.136;24.706;2022-10-31T00:59:48;7.25;;;3.30;;
69878;SDS011;57161;43.136;24.706;2022-10-31T01:02:13;10.55;;;3.38;;
69878;SDS011;57161;43.136;24.706;2022-10-31T01:04:39;6.95;;;3.42;;
69878;SDS011;57161;43.136;24.706;2022-10-31T01:07:04;6.88;;;3.05;;
69878;SDS011;57161;43.136;24.706;2022-10-31T01:09:30;9.13;;;3.80;;
69878;SDS011;57161;43.136;24.706;2022-10-31T01:11:55;10.23;;;3.58;;
69878;SDS011;57161;43.136;24.706;2022-10-31T01:14:21;6.40;;;3.03;;
69878;SDS011;57161;43.136;24.706;2022-10-31T01:16:46;8.82;;;3.30;;
69878;SDS011;57161;43.136;24.706;2022-10-31T01:19:11;6.57;;;3.25;;
69878;SDS011;57161;43.136;24.706;2022-10-31T01:21:37;9.70;;;3.65;;
69878;SDS011;57161;43.136;24.706;2022-10-31T01:24:02;10.15;;;3.60;;
69878;SDS011;57161;43.136;24.706;2022-10-31T01:26:29;8.30;;;3.25;;
69878;SDS011;57161;43.136;24.706;2022-10-31T01:29:00;7.60;;;3.47;;
69878;SDS011;57161;43.136;24.706;2022-10-31T01:31:32;7.93;;;3.63;;
69878;SDS011;57161;43.136;24.706;2022-10-31T01:33:59;7.32;;;3.15;;
69878;SDS011;57161;43.136;24.706;2022-10-31T01:36:32;8.27;;;3.20;;
69878;SDS011;57161;43.136;24.706;2022-10-31T01:39:03;7.70;;;3.35;;
69878;SDS011;57161;43.136;24.706;2022-10-31T01:41:33;10.82;;;3.30;;
69878;SDS011;57161;43.136;24.706;2022-10-31T01:44:02;8.18;;;3.40;;
69878;SDS011;57161;43.136;24.706;2022-10-31T01:46:54;4.90;;;3.28;;
69878;SDS011;57161;43.136;24.706;2022-10-31T01:49:26;6.22;;;3.53;;
69878;SDS011;57161;43.136;24.706;2022-10-31T01:51:56;8.07;;;3.47;;
69878;SDS011;57161;43.136;24.706;2022-10-31T01:54:26;12.97;;;4.10;;
69878;SDS011;57161;43.136;24.706;2022-10-31T01:56:55;7.25;;;3.55;;
69878;SDS011;57161;43.136;24.706;2022-10-31T01:59:22;7.68;;;3.97;;
69878;SDS011;57161;43.136;24.706;2022-10-31T02:01:51;8.07;;;3.28;;
69878;SDS011;57161;43.136;24.706;2022-10-31T02:04:18;8.77;;;3.30;;
69878;SDS011;57161;43.136;24.706;2022-10-31T02:06:48;9.48;;;3.72;;
69878;SDS011;57161;43.136;24.706;2022-10-31T02:09:19;6.40;;;2.90;;
69878;SDS011;57161;43.136;24.706;2022-10-31T02:11:49;10.68;;;3.67;;
69878;SDS011;57161;43.136;24.706;2022-10-31T02:14:26;10.10;;;3.42;;
69878;SDS011;57161;43.136;24.706;2022-10-31T02:16:54;12.45;;;3.30;;
69878;SDS011;57161;43.136;24.706;2022-10-31T02:19:54;8.40;;;3.53;;
69878;SDS011;57161;43.136;24.706;2022-10-31T02:22:48;8.02;;;3.85;;
69878;SDS011;57161;43.136;24.706;2022-10-31T02:34:02;8.57;;;3.50;;
69878;SDS011;57161;43.136;24.706;2022-10-31T02:39:36;7.78;;;3.47;;
69878;SDS011;57161;43.136;24.706;2022-10-31T02:42:07;7.72;;;3.60;;
69878;SDS011;57161;43.136;24.706;2022-10-31T02:44:44;7.38;;;3.38;;
69878;SDS011;57161;43.136;24.706;2022-10-31T02:49:50;8.85;;;3.67;;
69878;SDS011;57161;43.136;24.706;2022-10-31T02:52:25;8.07;;;3.80;;
69878;SDS011;57161;43.136;24.706;2022-10-31T02:54:52;12.13;;;3.70;;
69878;SDS011;57161;43.136;24.706;2022-10-31T02:57:36;10.63;;;3.40;;
69878;SDS011;57161;43.136;24.706;2022-10-31T03:00:06;7.70;;;3.33;;
69878;SDS011;57161;43.136;24.706;2022-10-31T03:05:28;6.85;;;3.38;;
69878;SDS011;57161;43.136;24.706;2022-10-31T03:11:02;7.93;;;3.20;;
69878;SDS011;57161;43.136;24.706;2022-10-31T03:13:46;6.82;;;3.47;;
69878;SDS011;57161;43.136;24.706;2022-10-31T03:16:22;10.07;;;3.58;;
69878;SDS011;57161;43.136;24.706;2022-10-31T03:18:50;10.20;;;4.05;;
69878;SDS011;57161;43.136;24.706;2022-10-31T03:24:16;6.15;;;3.75;;
69878;SDS011;57161;43.136;24.706;2022-10-31T03:26:46;7.50;;;3.47;;
69878;SDS011;57161;43.136;24.706;2022-10-31T03:31:46;5.93;;;3.28;;
69878;SDS011;57161;43.136;24.706;2022-10-31T03:34:15;7.63;;;4.00;;
69878;SDS011;57161;43.136;24.706;2022-10-31T03:36:42;10.90;;;3.80;;
69878;SDS011;57161;43.136;24.706;2022-10-31T03:39:13;9.95;;;4.10;;
69878;SDS011;57161;43.136;24.706;2022-10-31T03:41:44;8.87;;;4.10;;
69878;SDS011;57161;43.136;24.706;2022-10-31T03:44:15;7.50;;;3.78;;
69878;SDS011;57161;43.136;24.706;2022-10-31T03:46:44;10.77;;;4.72;;
69878;SDS011;57161;43.136;24.706;2022-10-31T03:49:10;7.22;;;4.18;;
69878;SDS011;57161;43.136;24.706;2022-10-31T03:51:39;8.27;;;4.53;;
69878;SDS011;57161;43.136;24.706;2022-10-31T03:54:34;7.85;;;4.15;;
69878;SDS011;57161;43.136;24.706;2022-10-31T04:00:22;8.98;;;4.75;;
69878;SDS011;57161;43.136;24.706;2022-10-31T04:02:42;7.60;;;4.07;;
69878;SDS011;57161;43.136;24.706;2022-10-31T04:05:14;6.78;;;4.25;;
69878;SDS011;57161;43.136;24.706;2022-10-31T04:07:43;11.25;;;4.53;;
69878;SDS011;57161;43.136;24.706;2022-10-31T04:10:13;10.98;;;5.25;;
69878;SDS011;57161;43.136;24.706;2022-10-31T04:12:40;9.65;;;4.20;;
69878;SDS011;57161;43.136;24.706;2022-10-31T04:15:09;9.80;;;3.85;;
69878;SDS011;57161;43.136;24.706;2022-10-31T04:17:36;7.18;;;3.90;;
69878;SDS011;57161;43.136;24.706;2022-10-31T04:20:05;7.80;;;4.53;;
69878;SDS011;57161;43.136;24.706;2022-10-31T04:22:31;12.80;;;4.72;;
69878;SDS011;57161;43.136;24.706;2022-10-31T04:24:57;7.40;;;3.97;;
69878;SDS011;57161;43.136;24.706;2022-10-31T04:27:22;17.13;;;7.85;;
69878;SDS011;57161;43.136;24.706;2022-10-31T04:29:48;12.23;;;4.47;;
69878;SDS011;57161;43.136;24.706;2022-10-31T04:32:13;10.18;;;4.80;;
69878;SDS011;57161;43.136;24.706;2022-10-31T04:34:39;7.13;;;4.22;;
69878;SDS011;57161;43.136;24.706;2022-10-31T04:37:04;13.07;;;4.93;;
69878;SDS011;57161;43.136;24.706;2022-10-31T04:39:30;10.00;;;5.07;;
69878;SDS011;57161;43.136;24.706;2022-10-31T04:41:55;9.85;;;4.20;;
69878;SDS011;57161;43.136;24.706;2022-10-31T04:44:21;8.80;;;4.55;;
69878;SDS011;57161;43.136;24.706;2022-10-31T04:46:46;11.93;;;4.68;;
69878;SDS011;57161;43.136;24.706;2022-10-31T04:49:11;13.48;;;5.03;;
69878;SDS011;57161;43.136;24.706;2022-10-31T04:51:37;9.27;;;4.85;;
69878;SDS011;57161;43.136;24.706;2022-10-31T04:54:02;12.15;;;4.95;;
69878;SDS011;57161;43.136;24.706;2022-10-31T04:56:28;9.30;;;5.05;;
69878;SDS011;57161;43.136;24.706;2022-10-31T04:58:53;14.45;;;5.20;;
69878;SDS011;57161;43.136;24.706;2022-10-31T05:01:19;9.23;;;5.47;;
69878;SDS011;57161;43.136;24.706;2022-10-31T05:03:44;10.63;;;5.00;;
69878;SDS011;57161;43.136;24.706;2022-10-31T05:06:10;10.68;;;5.15;;
69878;SDS011;57161;43.136;24.706;2022-10-31T05:08:35;14.50;;;5.35;;
69878;SDS011;57161;43.136;24.706;2022-10-31T05:11:01;10.90;;;5.57;;
69878;SDS011;57161;43.136;24.706;2022-10-31T05:13:27;11.95;;;5.10;;
69878;SDS011;57161;43.136;24.706;2022-10-31T05:15:53;10.70;;;5.40;;
69878;SDS011;57161;43.136;24.706;2022-10-31T05:18:19;10.65;;;5.20;;
69878;SDS011;57161;43.136;24.706;2022-10-31T05:20:44;13.93;;;5.28;;
69878;SDS011;57161;43.136;24.706;2022-10-31T05:23:09;8.85;;;5.70;;
69878;SDS011;57161;43.136;24.706;2022-10-31T05:25:35;10.15;;;5.43;;
69878;SDS011;57161;43.136;24.706;2022-10-31T05:28:00;10.10;;;5.45;;
69878;SDS011;57161;43.136;24.706;2022-10-31T05:30:27;12.05;;;4.32;;
69878;SDS011;57161;43.136;24.706;2022-10-31T05:32:54;9.18;;;6.60;;
69878;SDS011;57161;43.136;24.706;2022-10-31T05:35:21;12.30;;;5.60;;
69878;SDS011;57161;43.136;24.706;2022-10-31T05:37:48;12.93;;;5.25;;
69878;SDS011;57161;43.136;24.706;2022-10-31T05:40:15;15.15;;;6.30;;
69878;SDS011;57161;43.136;24.706;2022-10-31T05:42:42;14.10;;;4.68;;
69878;SDS011;57161;43.136;24.706;2022-10-31T05:45:09;13.30;;;5.28;;
69878;SDS011;57161;43.136;24.706;2022-10-31T05:47:35;11.98;;;4.95;;
69878;SDS011;57161;43.136;24.706;2022-10-31T05:50:01;10.95;;;5.18;;
69878;SDS011;57161;43.136;24.706;2022-10-31T05:52:26;13.75;;;4.65;;
69878;SDS011;57161;43.136;24.706;2022-10-31T05:54:52;10.15;;;4.85;;
69878;SDS011;57161;43.136;24.706;2022-10-31T05:57:17;9.85;;;4.40;;
69878;SDS011;57161;43.136;24.706;2022-10-31T05:59:43;7.75;;;4.45;;
69878;SDS011;57161;43.136;24.706;2022-10-31T06:02:10;12.73;;;5.28;;
69878;SDS011;57161;43.136;24.706;2022-10-31T06:04:35;9.48;;;5.20;;
69878;SDS011;57161;43.136;24.706;2022-10-31T06:07:01;13.52;;;5.20;;
69878;SDS011;57161;43.136;24.706;2022-10-31T06:09:26;12.25;;;5.22;;
69878;SDS011;57161;43.136;24.706;2022-10-31T06:11:51;18.10;;;7.00;;
69878;SDS011;57161;43.136;24.706;2022-10-31T06:14:17;14.48;;;4.88;;
69878;SDS011;57161;43.136;24.706;2022-10-31T06:16:42;14.75;;;5.50;;
69878;SDS011;57161;43.136;24.706;2022-10-31T06:19:08;12.75;;;5.10;;
69878;SDS011;57161;43.136;24.706;2022-10-31T06:21:33;24.65;;;5.75;;
69878;SDS011;57161;43.136;24.706;2022-10-31T06:23:59;14.27;;;4.88;;
69878;SDS011;57161;43.136;24.706;2022-10-31T06:26:24;9.45;;;4.35;;
69878;SDS011;57161;43.136;24.706;2022-10-31T06:28:50;11.48;;;4.90;;
69878;SDS011;57161;43.136;24.706;2022-10-31T06:31:15;9.70;;;4.60;;
69878;SDS011;57161;43.136;24.706;2022-10-31T06:33:41;30.30;;;4.95;;
69878;SDS011;57161;43.136;24.706;2022-10-31T06:36:07;10.38;;;4.70;;
69878;SDS011;57161;43.136;24.706;2022-10-31T06:38:34;13.27;;;4.82;;
69878;SDS011;57161;43.136;24.706;2022-10-31T06:41:03;13.55;;;4.80;;
69878;SDS011;57161;43.136;24.706;2022-10-31T06:43:29;12.20;;;5.18;;
69878;SDS011;57161;43.136;24.706;2022-10-31T06:45:55;9.73;;;4.85;;
69878;SDS011;57161;43.136;24.706;2022-10-31T06:48:20;10.98;;;4.40;;
69878;SDS011;57161;43.136;24.706;2022-10-31T06:50:46;7.97;;;4.57;;
69878;SDS011;57161;43.136;24.706;2022-10-31T06:53:11;11.13;;;5.32;;
69878;SDS011;57161;43.136;24.706;2022-10-31T06:55:39;17.05;;;5.07;;
69878;SDS011;57161;43.136;24.706;2022-10-31T06:58:05;11.88;;;4.88;;
69878;SDS011;57161;43.136;24.706;2022-10-31T07:00:33;10.80;;;4.63;;
69878;SDS011;57161;43.136;24.706;2022-10-31T07:02:59;10.63;;;5.00;;
69878;SDS011;57161;43.136;24.706;2022-10-31T07:05:30;13.68;;;4.65;;
69878;SDS011;57161;43.136;24.706;2022-10-31T07:07:56;9.20;;;5.70;;
69878;SDS011;57161;43.136;24.706;2022-10-31T07:10:23;18.98;;;6.97;;
69878;SDS011;57161;43.136;24.706;2022-10-31T07:12:57;17.42;;;4.78;;
69878;SDS011;57161;43.136;24.706;2022-10-31T07:15:24;17.50;;;5.53;;
69878;SDS011;57161;43.136;24.706;2022-10-31T07:17:50;26.20;;;4.80;;
69878;SDS011;57161;43.136;24.706;2022-10-31T07:20:16;11.77;;;4.40;;
69878;SDS011;57161;43.136;24.706;2022-10-31T07:22:41;14.68;;;4.35;;
69878;SDS011;57161;43.136;24.706;2022-10-31T07:25:07;12.02;;;4.40;;
69878;SDS011;57161;43.136;24.706;2022-10-31T07:27:39;10.05;;;4.32;;
69878;SDS011;57161;43.136;24.706;2022-10-31T07:30:07;22.45;;;5.88;;
69878;SDS011;57161;43.136;24.706;2022-10-31T07:32:37;14.38;;;4.57;;
69878;SDS011;57161;43.136;24.706;2022-10-31T07:35:04;6.90;;;3.77;;
69878;SDS011;57161;43.136;24.706;2022-10-31T07:37:31;11.75;;;4.22;;
69878;SDS011;57161;43.136;24.706;2022-10-31T07:39:56;9.57;;;4.25;;
69878;SDS011;57161;43.136;24.706;2022-10-31T07:42:21;11.80;;;3.85;;
69878;SDS011;57161;43.136;24.706;2022-10-31T07:44:47;7.47;;;3.80;;
69878;SDS011;57161;43.136;24.706;2022-10-31T07:47:12;7.60;;;3.50;;
69878;SDS011;57161;43.136;24.706;2022-10-31T07:49:38;8.35;;;3.90;;
69878;SDS011;57161;43.136;24.706;2022-10-31T07:52:03;6.53;;;3.80;;
69878;SDS011;57161;43.136;24.706;2022-10-31T07:54:29;15.13;;;3.80;;
69878;SDS011;57161;43.136;24.706;2022-10-31T07:56:54;7.63;;;3.90;;
69878;SDS011;57161;43.136;24.706;2022-10-31T07:59:20;10.38;;;3.80;;
69878;SDS011;57161;43.136;24.706;2022-10-31T08:01:45;7.28;;;3.60;;
69878;SDS011;57161;43.136;24.706;2022-10-31T08:04:11;10.10;;;3.75;;
69878;SDS011;57161;43.136;24.706;2022-10-31T08:06:36;9.80;;;3.40;;
69878;SDS011;57161;43.136;24.706;2022-10-31T08:09:02;10.70;;;3.80;;
69878;SDS011;57161;43.136;24.706;2022-10-31T08:11:27;8.10;;;4.00;;
69878;SDS011;57161;43.136;24.706;2022-10-31T08:13:52;8.93;;;4.05;;
69878;SDS011;57161;43.136;24.706;2022-10-31T08:16:18;8.40;;;3.78;;
69878;SDS011;57161;43.136;24.706;2022-10-31T08:18:43;9.13;;;3.90;;
69878;SDS011;57161;43.136;24.706;2022-10-31T08:21:09;9.93;;;4.30;;
69878;SDS011;57161;43.136;24.706;2022-10-31T08:23:35;7.25;;;4.40;;
69878;SDS011;57161;43.136;24.706;2022-10-31T08:26:00;11.20;;;4.07;;
69878;SDS011;57161;43.136;24.706;2022-10-31T08:28:26;8.02;;;4.30;;
69878;SDS011;57161;43.136;24.706;2022-10-31T08:30:51;11.52;;;4.20;;
69878;SDS011;57161;43.136;24.706;2022-10-31T08:33:17;7.97;;;3.70;;
69878;SDS011;57161;43.136;24.706;2022-10-31T08:35:43;8.90;;;3.22;;
69878;SDS011;57161;43.136;24.706;2022-10-31T08:38:10;10.77;;;4.18;;
69878;SDS011;57161;43.136;24.706;2022-10-31T08:40:36;6.72;;;3.67;;
69878;SDS011;57161;43.136;24.706;2022-10-31T08:43:04;8.30;;;4.25;;
69878;SDS011;57161;43.136;24.706;2022-10-31T08:45:37;7.72;;;3.88;;
69878;SDS011;57161;43.136;24.706;2022-10-31T08:48:03;13.05;;;3.88;;
69878;SDS011;57161;43.136;24.706;2022-10-31T08:50:31;15.07;;;4.25;;
69878;SDS011;57161;43.136;24.706;2022-10-31T08:53:05;10.68;;;3.80;;
69878;SDS011;57161;43.136;24.706;2022-10-31T08:55:34;6.43;;;4.40;;
69878;SDS011;57161;43.136;24.706;2022-10-31T08:58:00;8.07;;;4.03;;
69878;SDS011;57161;43.136;24.706;2022-10-31T09:00:26;6.15;;;3.60;;
69878;SDS011;57161;43.136;24.706;2022-10-31T09:02:59;9.07;;;4.15;;
69878;SDS011;57161;43.136;24.706;2022-10-31T09:05:45;10.05;;;4.38;;
69878;SDS011;57161;43.136;24.706;2022-10-31T09:08:10;15.05;;;4.13;;
69878;SDS011;57161;43.136;24.706;2022-10-31T09:10:37;9.73;;;4.35;;
69878;SDS011;57161;43.136;24.706;2022-10-31T09:13:10;8.80;;;3.75;;
69878;SDS011;57161;43.136;24.706;2022-10-31T09:15:38;13.80;;;4.53;;
69878;SDS011;57161;43.136;24.706;2022-10-31T09:18:06;11.27;;;4.45;;
69878;SDS011;57161;43.136;24.706;2022-10-31T09:20:32;6.95;;;3.95;;
69878;SDS011;57161;43.136;24.706;2022-10-31T09:22:59;5.95;;;3.60;;
69878;SDS011;57161;43.136;24.706;2022-10-31T09:25:30;9.85;;;4.57;;
69878;SDS011;57161;43.136;24.706;2022-10-31T09:27:57;13.98;;;5.88;;
69878;SDS011;57161;43.136;24.706;2022-10-31T09:30:23;12.18;;;4.30;;
69878;SDS011;57161;43.136;24.706;2022-10-31T09:32:56;17.52;;;4.55;;
69878;SDS011;57161;43.136;24.706;2022-10-31T09:35:26;10.50;;;4.35;;
69878;SDS011;57161;43.136;24.706;2022-10-31T09:38:02;10.90;;;4.30;;
69878;SDS011;57161;43.136;24.706;2022-10-31T09:40:35;7.88;;;3.63;;
69878;SDS011;57161;43.136;24.706;2022-10-31T09:48:08;11.80;;;3.65;;
69878;SDS011;57161;43.136;24.706;2022-10-31T09:55:51;8.02;;;3.60;;
69878;SDS011;57161;43.136;24.706;2022-10-31T09:58:23;11.18;;;3.85;;
69878;SDS011;57161;43.136;24.706;2022-10-31T10:00:50;6.55;;;3.50;;
69878;SDS011;57161;43.136;24.706;2022-10-31T10:08:26;6.78;;;3.85;;
69878;SDS011;57161;43.136;24.706;2022-10-31T10:16:25;13.27;;;5.65;;
69878;SDS011;57161;43.136;24.706;2022-10-31T10:22:08;8.98;;;3.60;;
69878;SDS011;57161;43.136;24.706;2022-10-31T10:28:21;8.90;;;3.45;;
69878;SDS011;57161;43.136;24.706;2022-10-31T10:30:46;9.05;;;4.03;;
69878;SDS011;57161;43.136;24.706;2022-10-31T10:33:20;7.38;;;3.83;;
69878;SDS011;57161;43.136;24.706;2022-10-31T10:35:54;12.52;;;4.18;;
69878;SDS011;57161;43.136;24.706;2022-10-31T10:38:29;13.07;;;3.78;;
69878;SDS011;57161;43.136;24.706;2022-10-31T10:41:00;4.85;;;3.10;;
69878;SDS011;57161;43.136;24.706;2022-10-31T10:43:32;7.90;;;3.35;;
69878;SDS011;57161;43.136;24.706;2022-10-31T10:46:03;60.17;;;4.95;;
69878;SDS011;57161;43.136;24.706;2022-10-31T10:49:07;6.85;;;3.05;;
69878;SDS011;57161;43.136;24.706;2022-10-31T10:59:52;6.15;;;2.90;;
69878;SDS011;57161;43.136;24.706;2022-10-31T11:02:25;6.85;;;2.78;;
69878;SDS011;57161;43.136;24.706;2022-10-31T11:04:56;7.00;;;2.85;;
69878;SDS011;57161;43.136;24.706;2022-10-31T11:07:23;11.90;;;3.45;;
69878;SDS011;57161;43.136;24.706;2022-10-31T11:09:48;8.45;;;2.83;;
69878;SDS011;57161;43.136;24.706;2022-10-31T11:12:35;11.95;;;2.83;;
69878;SDS011;57161;43.136;24.706;2022-10-31T11:15:06;7.50;;;2.80;;
69878;SDS011;57161;43.136;24.706;2022-10-31T11:17:41;7.75;;;3.00;;
69878;SDS011;57161;43.136;24.706;2022-10-31T11:22:42;9.30;;;3.50;;
69878;SDS011;57161;43.136;24.706;2022-10-31T11:25:27;14.70;;;3.42;;
69878;SDS011;57161;43.136;24.706;2022-10-31T11:28:03;5.72;;;2.80;;
69878;SDS011;57161;43.136;24.706;2022-10-31T11:30:31;10.50;;;3.40;;
69878;SDS011;57161;43.136;24.706;2022-10-31T11:33:11;6.03;;;3.05;;
69878;SDS011;57161;43.136;24.706;2022-10-31T11:35:45;8.95;;;2.70;;
69878;SDS011;57161;43.136;24.706;2022-10-31T11:38:17;5.43;;;2.78;;
69878;SDS011;57161;43.136;24.706;2022-10-31T11:43:50;17.27;;;3.40;;
69878;SDS011;57161;43.136;24.706;2022-10-31T11:46:33;7.32;;;3.00;;
69878;SDS011;57161;43.136;24.706;2022-10-31T11:49:02;8.23;;;3.10;;
69878;SDS011;57161;43.136;24.706;2022-10-31T11:51:30;7.07;;;2.97;;
69878;SDS011;57161;43.136;24.706;2022-10-31T11:53:59;8.38;;;3.28;;
69878;SDS011;57161;43.136;24.706;2022-10-31T11:56:27;7.18;;;3.22;;
69878;SDS011;57161;43.136;24.706;2022-10-31T11:59:03;9.30;;;2.90;;
69878;SDS011;57161;43.136;24.706;2022-10-31T12:01:31;17.77;;;9.27;;
69878;SDS011;57161;43.136;24.706;2022-10-31T12:04:06;9.13;;;4.20;;
69878;SDS011;57161;43.136;24.706;2022-10-31T12:06:40;7.38;;;3.20;;
69878;SDS011;57161;43.136;24.706;2022-10-31T12:14:53;7.20;;;3.95;;
69878;SDS011;57161;43.136;24.706;2022-10-31T12:17:25;19.60;;;9.02;;
69878;SDS011;57161;43.136;24.706;2022-10-31T12:34:11;10.25;;;3.58;;
69878;SDS011;57161;43.136;24.706;2022-10-31T12:37:11;8.43;;;3.00;;
69878;SDS011;57161;43.136;24.706;2022-10-31T12:40:09;7.68;;;3.63;;
69878;SDS011;57161;43.136;24.706;2022-10-31T12:42:48;12.80;;;4.22;;
69878;SDS011;57161;43.136;24.706;2022-10-31T12:48:27;11.77;;;4.03;;
69878;SDS011;57161;43.136;24.706;2022-10-31T12:59:06;6.50;;;3.20;;
69878;SDS011;57161;43.136;24.706;2022-10-31T13:01:34;14.52;;;3.22;;
69878;SDS011;57161;43.136;24.706;2022-10-31T13:04:11;11.70;;;4.00;;
69878;SDS011;57161;43.136;24.706;2022-10-31T13:06:42;9.00;;;3.60;;
69878;SDS011;57161;43.136;24.706;2022-10-31T13:09:14;10.23;;;4.45;;
69878;SDS011;57161;43.136;24.706;2022-10-31T13:11:55;13.05;;;3.85;;
69878;SDS011;57161;43.136;24.706;2022-10-31T13:14:37;11.07;;;6.00;;
69878;SDS011;57161;43.136;24.706;2022-10-31T13:17:08;26.15;;;5.40;;
69878;SDS011;57161;43.136;24.706;2022-10-31T13:19:43;10.85;;;4.60;;
69878;SDS011;57161;43.136;24.706;2022-10-31T13:24:56;12.20;;;4.10;;
69878;SDS011;57161;43.136;24.706;2022-10-31T13:27:28;12.45;;;3.75;;
69878;SDS011;57161;43.136;24.706;2022-10-31T13:30:01;14.65;;;3.72;;
69878;SDS011;57161;43.136;24.706;2022-10-31T13:33:04;8.52;;;2.97;;
69878;SDS011;57161;43.136;24.706;2022-10-31T13:46:26;8.63;;;3.08;;
69878;SDS011;57161;43.136;24.706;2022-10-31T13:48:59;7.65;;;3.05;;
69878;SDS011;57161;43.136;24.706;2022-10-31T13:51:26;12.15;;;3.70;;
69878;SDS011;57161;43.136;24.706;2022-10-31T13:56:26;10.48;;;3.10;;
69878;SDS011;57161;43.136;24.706;2022-10-31T14:01:36;9.82;;;3.63;;
69878;SDS011;57161;43.136;24.706;2022-10-31T14:04:03;8.75;;;3.72;;
69878;SDS011;57161;43.136;24.706;2022-10-31T14:06:36;14.35;;;4.32;;
69878;SDS011;57161;43.136;24.706;2022-10-31T14:09:04;6.10;;;3.08;;
69878;SDS011;57161;43.136;24.706;2022-10-31T14:11:31;9.25;;;3.83;;
69878;SDS011;57161;43.136;24.706;2022-10-31T14:13:57;9.35;;;3.65;;
69878;SDS011;57161;43.136;24.706;2022-10-31T14:16:28;11.40;;;3.45;;
69878;SDS011;57161;43.136;24.706;2022-10-31T14:19:06;9.10;;;3.33;;
69878;SDS011;57161;43.136;24.706;2022-10-31T14:21:40;13.32;;;4.72;;
69878;SDS011;57161;43.136;24.706;2022-10-31T14:26:58;17.58;;;5.50;;
69878;SDS011;57161;43.136;24.706;2022-10-31T14:29:25;20.35;;;5.72;;
69878;SDS011;57161;43.136;24.706;2022-10-31T14:51:16;28.00;;;6.68;;
69878;SDS011;57161;43.136;24.706;2022-10-31T14:53:54;22.50;;;7.32;;
69878;SDS011;57161;43.136;24.706;2022-10-31T14:56:25;34.35;;;8.85;;
69878;SDS011;57161;43.136;24.706;2022-10-31T14:58:53;26.52;;;8.18;;
69878;SDS011;57161;43.136;24.706;2022-10-31T15:01:23;21.98;;;8.63;;
69878;SDS011;57161;43.136;24.706;2022-10-31T15:06:20;20.65;;;7.57;;
69878;SDS011;57161;43.136;24.706;2022-10-31T15:08:51;32.13;;;7.43;;
69878;SDS011;57161;43.136;24.706;2022-10-31T15:11:20;29.13;;;6.47;;
69878;SDS011;57161;43.136;24.706;2022-10-31T15:13:55;28.98;;;7.03;;
69878;SDS011;57161;43.136;24.706;2022-10-31T15:16:41;23.50;;;7.32;;
69878;SDS011;57161;43.136;24.706;2022-10-31T15:19:10;27.33;;;7.05;;
69878;SDS011;57161;43.136;24.706;2022-10-31T15:21:42;18.20;;;5.53;;
69878;SDS011;57161;43.136;24.706;2022-10-31T15:24:10;20.20;;;4.60;;
69878;SDS011;57161;43.136;24.706;2022-10-31T15:26:40;14.98;;;4.72;;
69878;SDS011;57161;43.136;24.706;2022-10-31T15:29:12;26.80;;;5.60;;
69878;SDS011;57161;43.136;24.706;2022-10-31T15:31:56;32.78;;;5.25;;
69878;SDS011;57161;43.136;24.706;2022-10-31T15:37:00;22.88;;;6.22;;
69878;SDS011;57161;43.136;24.706;2022-10-31T15:39:26;35.63;;;7.22;;
69878;SDS011;57161;43.136;24.706;2022-10-31T15:41:55;30.88;;;9.80;;
69878;SDS011;57161;43.136;24.706;2022-10-31T15:49:41;95.38;;;14.48;;
69878;SDS011;57161;43.136;24.706;2022-10-31T15:54:54;116.85;;;34.90;;
69878;SDS011;57161;43.136;24.706;2022-10-31T15:57:23;80.22;;;32.65;;
69878;SDS011;57161;43.136;24.706;2022-10-31T15:59:51;58.88;;;20.98;;
69878;SDS011;57161;43.136;24.706;2022-10-31T16:02:18;71.45;;;20.23;;
69878;SDS011;57161;43.136;24.706;2022-10-31T16:04:56;74.60;;;15.43;;
69878;SDS011;57161;43.136;24.706;2022-10-31T16:07:23;63.08;;;15.63;;
69878;SDS011;57161;43.136;24.706;2022-10-31T16:09:50;58.45;;;14.57;;
69878;SDS011;57161;43.136;24.706;2022-10-31T16:12:18;46.65;;;11.85;;
69878;SDS011;57161;43.136;24.706;2022-10-31T16:14:45;38.78;;;10.82;;
69878;SDS011;57161;43.136;24.706;2022-10-31T16:17:14;41.40;;;9.32;;
69878;SDS011;57161;43.136;24.706;2022-10-31T16:19:47;32.47;;;8.40;;
69878;SDS011;57161;43.136;24.706;2022-10-31T16:22:13;31.75;;;8.68;;
69878;SDS011;57161;43.136;24.706;2022-10-31T16:27:51;23.35;;;7.88;;
69878;SDS011;57161;43.136;24.706;2022-10-31T16:32:54;26.52;;;7.72;;
69878;SDS011;57161;43.136;24.706;2022-10-31T16:35:34;34.88;;;7.38;;
69878;SDS011;57161;43.136;24.706;2022-10-31T16:38:04;27.52;;;9.20;;
69878;SDS011;57161;43.136;24.706;2022-10-31T16:40:30;31.17;;;10.52;;
69878;SDS011;57161;43.136;24.706;2022-10-31T16:42:57;35.15;;;11.23;;
69878;SDS011;57161;43.136;24.706;2022-10-31T16:45:25;40.35;;;9.50;;
69878;SDS011;57161;43.136;24.706;2022-10-31T16:47:52;69.93;;;11.52;;
69878;SDS011;57161;43.136;24.706;2022-10-31T16:50:22;54.25;;;9.63;;
69878;SDS011;57161;43.136;24.706;2022-10-31T16:52:49;33.50;;;8.52;;
69878;SDS011;57161;43.136;24.706;2022-10-31T16:55:16;35.15;;;7.38;;
69878;SDS011;57161;43.136;24.706;2022-10-31T16:57:48;28.35;;;8.40;;
69878;SDS011;57161;43.136;24.706;2022-10-31T17:00:21;29.80;;;8.52;;
69878;SDS011;57161;43.136;24.706;2022-10-31T17:02:48;26.40;;;9.63;;
69878;SDS011;57161;43.136;24.706;2022-10-31T17:05:16;28.77;;;9.73;;
69878;SDS011;57161;43.136;24.706;2022-10-31T17:07:43;31.13;;;11.70;;
69878;SDS011;57161;43.136;24.706;2022-10-31T17:10:10;26.77;;;11.93;;
69878;SDS011;57161;43.136;24.706;2022-10-31T17:12:37;50.33;;;15.45;;
69878;SDS011;57161;43.136;24.706;2022-10-31T17:15:06;46.78;;;10.85;;
69878;SDS011;57161;43.136;24.706;2022-10-31T17:17:39;25.67;;;7.30;;
69878;SDS011;57161;43.136;24.706;2022-10-31T17:20:11;33.88;;;7.95;;
69878;SDS011;57161;43.136;24.706;2022-10-31T17:22:50;28.35;;;9.55;;